createdAt,value
2019-04-05T00:01:31.735Z,11.13
2019-04-05T00:04:03.264Z,9.60
2019-04-05T00:06:32.367Z,11.70
2019-04-05T00:09:01.435Z,10.90
2019-04-05T00:11:32.290Z,10.47
2019-04-05T00:14:03.379Z,15.77
2019-04-05T00:16:32.543Z,11.80
2019-04-05T00:19:01.627Z,12.47
2019-04-05T00:21:30.704Z,8.83
2019-04-05T00:23:59.784Z,10.03
2019-04-05T00:26:29.009Z,12.40
2019-04-05T00:28:59.291Z,13.00
2019-04-05T00:31:28.804Z,12.00
2019-04-05T00:33:58.268Z,12.90
2019-04-05T00:36:32.864Z,12.03
2019-04-05T00:39:01.986Z,16.50
2019-04-05T00:41:33.017Z,13.07
2019-04-05T00:44:04.266Z,12.30
2019-04-05T00:46:33.327Z,8.73
2019-04-05T00:49:02.401Z,11.17
2019-04-05T00:51:31.545Z,10.17
2019-04-05T00:54:01.243Z,11.73
2019-04-05T00:56:36.104Z,13.67
2019-04-05T00:59:06.837Z,15.00
2019-04-05T01:01:38.908Z,12.27
2019-04-05T01:04:09.087Z,9.00
2019-04-05T01:06:38.311Z,10.90
2019-04-05T01:09:08.388Z,12.07
2019-04-05T01:11:40.551Z,10.07
2019-04-05T01:14:18.081Z,8.00
2019-04-05T01:16:50.558Z,11.23
2019-04-05T01:19:31.105Z,9.27
2019-04-05T01:22:01.654Z,9.30
2019-04-05T01:24:53.952Z,9.83
2019-04-05T01:27:28.093Z,9.70
2019-04-05T01:30:00.632Z,11.77
2019-04-05T01:32:29.782Z,7.93
2019-04-05T01:34:59.950Z,10.00
2019-04-05T01:37:29.014Z,11.10
2019-04-05T01:40:01.666Z,14.00
2019-04-05T01:42:33.679Z,10.03
2019-04-05T01:45:09.035Z,9.80
2019-04-05T01:47:39.233Z,9.67
2019-04-05T01:50:09.103Z,11.40
2019-04-05T01:52:44.300Z,11.80
2019-04-05T01:55:14.957Z,12.13
2019-04-05T01:57:44.107Z,9.17
2019-04-05T02:00:13.719Z,12.73
2019-04-05T02:02:49.737Z,9.50
2019-04-05T02:05:21.567Z,9.80
2019-04-05T02:07:50.926Z,12.30
2019-04-05T02:10:20.126Z,8.17
2019-04-05T02:12:53.708Z,10.27
2019-04-05T02:15:32.569Z,11.30
2019-04-05T02:18:01.634Z,14.20
2019-04-05T02:20:30.714Z,11.10
2019-04-05T02:23:01.068Z,8.27
2019-04-05T02:25:31.523Z,11.60
2019-04-05T02:28:01.784Z,12.93
2019-04-05T02:30:32.108Z,10.63
2019-04-05T02:33:02.209Z,12.40
2019-04-05T02:35:38.979Z,12.40
2019-04-05T02:38:09.613Z,7.97
2019-04-05T02:40:41.326Z,11.23
2019-04-05T02:43:14.820Z,10.70
2019-04-05T02:45:47.653Z,8.73
2019-04-05T02:48:18.250Z,9.80
2019-04-05T02:50:50.075Z,9.20
2019-04-05T02:53:22.705Z,10.03
2019-04-05T02:55:57.519Z,9.10
2019-04-05T02:58:29.067Z,9.00
2019-04-05T03:00:59.822Z,10.10
2019-04-05T03:03:32.771Z,11.57
2019-04-05T03:06:01.850Z,12.60
2019-04-05T03:08:32.033Z,13.10
2019-04-05T03:11:07.563Z,9.27
2019-04-05T03:13:42.837Z,10.67
2019-04-05T03:16:19.439Z,10.30
2019-04-05T03:18:54.387Z,10.87
2019-04-05T03:21:25.101Z,8.73
2019-04-05T03:23:59.011Z,9.10
2019-04-05T03:26:31.763Z,9.80
2019-04-05T03:29:09.339Z,8.17
2019-04-05T03:31:38.709Z,8.93
2019-04-05T03:34:29.949Z,7.20
2019-04-05T03:37:03.578Z,7.27
2019-04-05T03:39:33.073Z,10.30
2019-04-05T03:42:05.132Z,6.43
2019-04-05T03:44:34.409Z,5.97
2019-04-05T03:47:08.714Z,8.40
2019-04-05T03:49:37.821Z,9.40
2019-04-05T03:52:07.546Z,11.53
2019-04-05T03:54:38.272Z,7.77
2019-04-05T03:57:10.169Z,8.37
2019-04-05T03:59:39.553Z,10.37
2019-04-05T04:02:08.724Z,9.07
2019-04-05T04:04:37.941Z,8.10
2019-04-05T04:07:09.815Z,6.17
2019-04-05T04:09:40.389Z,8.80
2019-04-05T04:12:13.263Z,8.80
2019-04-05T04:14:47.068Z,12.10
2019-04-05T04:17:22.280Z,7.50
2019-04-05T04:19:56.838Z,6.87
2019-04-05T04:22:30.516Z,6.50
2019-04-05T04:25:04.596Z,7.10
2019-04-05T04:27:38.195Z,8.40
2019-04-05T04:30:07.821Z,10.20
2019-04-05T04:32:37.335Z,9.20
2019-04-05T04:35:22.032Z,9.00
2019-04-05T04:37:52.935Z,7.30
2019-04-05T04:40:22.066Z,8.00
2019-04-05T04:42:55.863Z,10.23
2019-04-05T04:45:27.973Z,9.83
2019-04-05T04:48:06.663Z,19.37
2019-04-05T04:50:39.167Z,8.37
2019-04-05T04:53:08.461Z,10.33
2019-04-05T04:55:41.932Z,7.33
2019-04-05T04:58:16.935Z,6.20
2019-04-05T05:00:48.108Z,9.20
2019-04-05T05:03:24.407Z,8.33
2019-04-05T05:06:00.105Z,8.17
2019-04-05T05:08:29.816Z,7.60
2019-04-05T05:10:59.045Z,11.00
2019-04-05T05:13:28.161Z,8.90
2019-04-05T05:15:57.430Z,4.20
2019-04-05T05:18:33.525Z,7.50
2019-04-05T05:21:05.632Z,9.27
2019-04-05T05:23:37.170Z,8.20
2019-04-05T05:26:06.444Z,6.90
2019-04-05T05:28:35.620Z,9.10
2019-04-05T05:31:12.209Z,8.53
2019-04-05T05:33:41.361Z,6.13
2019-04-05T05:36:12.440Z,12.13
2019-04-05T05:38:42.021Z,7.70
2019-04-05T05:41:13.190Z,5.80
2019-04-05T05:43:42.408Z,7.63
2019-04-05T05:46:11.671Z,8.50
2019-04-05T05:48:42.178Z,8.67
2019-04-05T05:51:11.544Z,11.17
2019-04-05T05:53:41.064Z,8.37
2019-04-05T05:56:11.626Z,7.40
2019-04-05T05:58:48.924Z,10.20
2019-04-05T06:01:18.281Z,7.77
2019-04-05T06:03:47.537Z,6.53
2019-04-05T06:06:41.657Z,9.97
2019-04-05T06:09:10.790Z,8.90
2019-04-05T06:11:46.258Z,9.60
2019-04-05T06:14:15.437Z,10.63
2019-04-05T06:16:46.510Z,12.67
2019-04-05T06:19:18.820Z,6.47
2019-04-05T06:21:49.249Z,9.03
2019-04-05T06:24:18.397Z,11.27
2019-04-05T06:26:47.808Z,12.20
2019-04-05T06:29:18.727Z,6.80
2019-04-05T06:31:48.263Z,10.53
2019-04-05T06:34:22.199Z,11.50
2019-04-05T06:36:53.233Z,9.90
2019-04-05T06:39:23.510Z,18.73
2019-04-05T06:41:54.371Z,12.97
2019-04-05T06:44:28.130Z,13.17
2019-04-05T06:46:57.258Z,12.70
2019-04-05T06:49:26.455Z,10.77
2019-04-05T06:51:55.592Z,9.43
2019-04-05T06:54:24.667Z,11.43
2019-04-05T06:56:59.349Z,10.50
2019-04-05T06:59:28.524Z,10.00
2019-04-05T07:01:57.633Z,13.17
2019-04-05T07:04:27.082Z,9.87
2019-04-05T07:06:56.456Z,15.60
2019-04-05T07:09:34.103Z,12.90
2019-04-05T07:12:11.848Z,11.97
2019-04-05T07:14:40.911Z,13.80
2019-04-05T07:17:10.050Z,12.20
2019-04-05T07:19:39.388Z,11.97
2019-04-05T07:22:09.834Z,14.13
2019-04-05T07:24:38.939Z,12.87
2019-04-05T07:27:14.041Z,19.63
2019-04-05T07:29:46.287Z,13.97
2019-04-05T07:32:15.398Z,15.07
2019-04-05T07:34:46.047Z,13.43
2019-04-05T07:37:15.427Z,13.77
2019-04-05T07:39:44.569Z,10.47
2019-04-05T07:42:13.669Z,18.40
2019-04-05T07:44:44.475Z,18.00
2019-04-05T07:47:19.027Z,16.07
2019-04-05T07:49:49.803Z,17.23
2019-04-05T07:52:18.937Z,14.63
2019-04-05T07:54:48.021Z,14.40
2019-04-05T07:57:17.226Z,13.47
2019-04-05T07:59:51.742Z,12.90
2019-04-05T08:02:21.261Z,12.50
2019-04-05T08:04:54.596Z,14.20
2019-04-05T08:07:21.504Z,15.00
2019-04-05T08:09:51.190Z,14.70
2019-04-05T08:12:20.623Z,14.40
2019-04-05T08:14:55.642Z,14.27
2019-04-05T08:17:28.529Z,13.13
2019-04-05T08:19:58.074Z,9.13
2019-04-05T08:22:32.321Z,13.77
2019-04-05T08:25:04.872Z,19.90
2019-04-05T08:27:34.008Z,15.10
2019-04-05T08:30:03.077Z,14.40
2019-04-05T08:32:36.109Z,16.00
2019-04-05T08:35:08.129Z,14.70
2019-04-05T08:37:38.554Z,15.10
2019-04-05T08:40:08.280Z,20.00
2019-04-05T08:42:37.399Z,12.50
2019-04-05T08:45:11.589Z,15.30
2019-04-05T08:47:46.148Z,15.80
2019-04-05T08:50:15.370Z,18.10
2019-04-05T08:52:47.397Z,17.00
2019-04-05T08:55:16.982Z,14.13
2019-04-05T08:57:48.089Z,17.43
2019-04-05T09:00:17.412Z,17.53
2019-04-05T09:02:49.827Z,15.73
2019-04-05T09:05:20.196Z,17.03
2019-04-05T09:07:50.260Z,15.20
2019-04-05T09:10:25.665Z,14.87
2019-04-05T09:12:55.294Z,19.20
2019-04-05T09:15:29.695Z,23.80
2019-04-05T09:18:11.025Z,20.27
2019-04-05T09:20:40.265Z,22.40
2019-04-05T09:23:15.224Z,21.47
2019-04-05T09:25:47.587Z,21.87
2019-04-05T09:28:18.216Z,19.97
2019-04-05T09:30:47.416Z,19.73
2019-04-05T09:33:18.313Z,22.87
2019-04-05T09:35:50.261Z,23.13
2019-04-05T09:38:24.587Z,23.13
2019-04-05T09:40:54.465Z,26.87
2019-04-05T09:43:24.957Z,23.77
2019-04-05T09:45:54.053Z,24.27
2019-04-05T09:48:27.249Z,21.23
2019-04-05T09:50:56.528Z,24.20
2019-04-05T09:53:25.950Z,30.80
2019-04-05T09:55:55.022Z,23.77
2019-04-05T09:58:24.146Z,25.30
2019-04-05T10:00:55.154Z,24.30
2019-04-05T10:03:26.334Z,24.40
2019-04-05T10:05:55.980Z,21.57
2019-04-05T10:08:25.310Z,20.27
2019-04-05T10:10:54.990Z,19.13
2019-04-05T10:13:26.640Z,17.67
2019-04-05T10:15:57.429Z,20.10
2019-04-05T10:18:27.003Z,19.53
2019-04-05T10:20:56.873Z,18.37
2019-04-05T10:23:31.400Z,22.97
2019-04-05T10:26:20.212Z,17.80
2019-04-05T10:28:38.901Z,23.93
2019-04-05T10:31:08.359Z,19.23
2019-04-05T10:33:37.926Z,16.50
2019-04-05T10:36:07.514Z,23.40
2019-04-05T10:38:38.004Z,18.40
2019-04-05T10:41:07.204Z,22.50
2019-04-05T10:43:41.172Z,17.87
2019-04-05T10:46:12.721Z,20.60
2019-04-05T10:48:44.321Z,23.30
2019-04-05T10:51:15.401Z,23.70
2019-04-05T10:53:44.895Z,26.90
2019-04-05T10:56:14.008Z,21.07
2019-04-05T10:58:45.967Z,19.27
2019-04-05T11:01:19.671Z,22.87
2019-04-05T11:03:50.304Z,21.23
2019-04-05T11:06:21.769Z,25.80
2019-04-05T11:08:51.863Z,22.43
2019-04-05T11:11:20.990Z,25.17
2019-04-05T11:13:51.441Z,19.07
2019-04-05T11:16:22.259Z,20.37
2019-04-05T11:18:53.028Z,24.37
2019-04-05T11:21:22.170Z,25.37
2019-04-05T11:23:51.200Z,19.40
2019-04-05T11:26:20.336Z,20.43
2019-04-05T11:28:53.358Z,21.43
2019-04-05T11:31:22.443Z,20.87
2019-04-05T11:33:51.998Z,23.20
2019-04-05T11:36:21.821Z,19.07
2019-04-05T11:38:55.463Z,20.47
2019-04-05T11:41:25.985Z,22.50
2019-04-05T11:43:58.495Z,25.07
2019-04-05T11:46:29.017Z,25.83
2019-04-05T11:49:06.558Z,22.47
2019-04-05T11:51:36.143Z,20.33
2019-04-05T11:54:06.881Z,24.30
2019-04-05T11:56:37.887Z,23.30
2019-04-05T11:59:15.543Z,22.87
2019-04-05T12:01:58.142Z,18.43
2019-04-05T12:04:27.269Z,22.33
2019-04-05T12:06:56.392Z,19.03
2019-04-05T12:09:25.532Z,18.67
2019-04-05T12:11:57.184Z,24.10
2019-04-05T12:14:30.712Z,24.40
2019-04-05T12:17:00.292Z,26.73
2019-04-05T12:19:29.544Z,24.03
2019-04-05T12:21:59.757Z,20.23
2019-04-05T12:24:32.626Z,25.27
2019-04-05T12:27:00.010Z,27.90
2019-04-05T12:29:34.581Z,19.47
2019-04-05T12:32:03.829Z,28.27
2019-04-05T12:34:33.238Z,33.80
2019-04-05T12:37:03.516Z,25.27
2019-04-05T12:39:36.373Z,23.60
2019-04-05T12:42:05.177Z,37.43
2019-04-05T12:44:35.517Z,22.03
2019-04-05T12:47:06.024Z,22.47
2019-04-05T12:49:39.336Z,25.03
2019-04-05T12:52:21.577Z,24.90
2019-04-05T12:54:43.462Z,28.30
2019-04-05T12:57:12.582Z,24.73
2019-04-05T12:59:41.982Z,24.73
2019-04-05T13:02:11.566Z,22.23
2019-04-05T13:04:40.723Z,33.70
2019-04-05T13:07:09.993Z,27.20
2019-04-05T13:09:39.091Z,24.13
2019-04-05T13:12:13.343Z,29.03
2019-04-05T13:14:42.481Z,25.10
2019-04-05T13:17:17.029Z,19.87
2019-04-05T13:19:46.396Z,20.43
2019-04-05T13:22:22.829Z,20.80
2019-04-05T13:24:51.456Z,20.47
2019-04-05T13:27:20.989Z,20.27
2019-04-05T13:29:56.284Z,21.17
2019-04-05T13:32:25.451Z,23.13
2019-04-05T13:34:55.866Z,21.27
2019-04-05T13:37:25.687Z,22.20
2019-04-05T13:39:57.629Z,26.40
2019-04-05T13:42:31.227Z,18.57
2019-04-05T13:45:00.216Z,18.87
2019-04-05T13:47:29.238Z,24.27
2019-04-05T13:50:00.139Z,21.13
2019-04-05T13:52:29.338Z,20.63
2019-04-05T13:55:03.210Z,20.87
2019-04-05T13:57:32.524Z,18.87
2019-04-05T14:00:03.430Z,12.77
2019-04-05T14:02:32.900Z,21.23
2019-04-05T14:05:06.691Z,20.77
2019-04-05T14:07:36.259Z,23.03
2019-04-05T14:10:15.465Z,18.77
2019-04-05T14:12:46.002Z,26.87
2019-04-05T14:15:18.554Z,18.57
2019-04-05T14:17:49.238Z,21.57
2019-04-05T14:20:24.585Z,18.43
2019-04-05T14:22:53.685Z,24.23
2019-04-05T14:25:26.070Z,22.50
2019-04-05T14:27:53.778Z,17.80
2019-04-05T14:30:22.914Z,20.13
2019-04-05T14:32:55.417Z,20.07
2019-04-05T14:35:25.985Z,26.30
2019-04-05T14:37:55.922Z,18.73
2019-04-05T14:40:30.362Z,18.90
2019-04-05T14:42:59.246Z,20.87
2019-04-05T14:45:28.393Z,20.73
2019-04-05T14:47:58.468Z,17.30
2019-04-05T14:50:29.084Z,21.43
2019-04-05T14:53:00.781Z,23.30
2019-04-05T14:55:35.487Z,17.83
2019-04-05T14:58:06.573Z,19.63
2019-04-05T15:00:35.684Z,20.23
2019-04-05T15:03:04.773Z,18.93
2019-04-05T15:05:35.315Z,22.70
2019-04-05T15:08:04.357Z,19.27
2019-04-05T15:10:35.935Z,15.40
2019-04-05T15:13:05.045Z,22.80
2019-04-05T15:15:34.195Z,16.03
2019-04-05T15:18:03.335Z,24.13
2019-04-05T15:20:36.211Z,16.90
2019-04-05T15:23:09.447Z,19.40
2019-04-05T15:25:37.481Z,19.30
2019-04-05T15:28:06.577Z,20.87
2019-04-05T15:30:37.262Z,22.23
2019-04-05T15:33:06.848Z,17.67
2019-04-05T15:35:35.981Z,21.83
2019-04-05T15:38:09.475Z,22.23
2019-04-05T15:40:38.595Z,20.73
2019-04-05T15:43:07.721Z,20.50
2019-04-05T15:45:38.413Z,17.80
2019-04-05T15:48:14.167Z,19.37
2019-04-05T15:50:40.917Z,20.00
2019-04-05T15:53:11.670Z,21.37
2019-04-05T15:55:48.715Z,25.37
2019-04-05T15:58:18.013Z,21.57
2019-04-05T16:00:47.646Z,19.60
2019-04-05T16:03:19.187Z,17.90
2019-04-05T16:05:49.339Z,17.27
2019-04-05T16:08:19.335Z,16.77
2019-04-05T16:10:48.465Z,16.83
2019-04-05T16:13:19.274Z,18.80
2019-04-05T16:15:48.432Z,19.63
2019-04-05T16:18:17.596Z,22.10
2019-04-05T16:20:46.714Z,18.10
2019-04-05T16:23:17.114Z,20.93
2019-04-05T16:25:46.189Z,17.60
2019-04-05T16:28:15.330Z,22.43
2019-04-05T16:30:46.976Z,18.40
2019-04-05T16:33:17.273Z,23.70
2019-04-05T16:35:47.342Z,19.20
2019-04-05T16:38:17.978Z,16.30
2019-04-05T16:40:48.544Z,21.60
2019-04-05T16:43:17.619Z,21.63
2019-04-05T16:45:48.638Z,19.07
2019-04-05T16:48:19.594Z,18.57
2019-04-05T16:50:49.792Z,23.47
2019-04-05T16:53:18.900Z,19.90
2019-04-05T16:55:49.778Z,23.87
2019-04-05T16:58:20.229Z,17.37
2019-04-05T17:00:49.428Z,18.23
2019-04-05T17:03:24.461Z,23.03
2019-04-05T17:05:58.503Z,19.90
2019-04-05T17:08:35.472Z,18.20
2019-04-05T17:11:09.423Z,19.80
2019-04-05T17:13:41.023Z,19.37
2019-04-05T17:16:12.418Z,18.20
2019-04-05T17:18:44.144Z,17.53
2019-04-05T17:21:14.757Z,24.93
2019-04-05T17:23:44.280Z,17.10
2019-04-05T17:26:14.895Z,16.30
2019-04-05T17:28:44.044Z,20.67
2019-04-05T17:31:16.383Z,19.20
2019-04-05T17:33:45.478Z,23.57
2019-04-05T17:36:14.586Z,18.20
2019-04-05T17:38:43.658Z,18.40
2019-04-05T17:41:12.855Z,19.93
2019-04-05T17:43:46.642Z,20.20
2019-04-05T17:46:18.798Z,18.70
2019-04-05T17:48:48.995Z,20.23
2019-04-05T17:51:18.255Z,18.50
2019-04-05T17:53:48.866Z,19.93
2019-04-05T17:56:19.997Z,25.00
2019-04-05T17:58:52.021Z,22.50
2019-04-05T18:01:21.195Z,18.90
2019-04-05T18:03:50.270Z,21.63
2019-04-05T18:06:20.164Z,20.57
2019-04-05T18:08:49.323Z,20.93
2019-04-05T18:11:19.322Z,24.37
2019-04-05T18:13:48.441Z,21.70
2019-04-05T18:16:17.517Z,20.57
2019-04-05T18:18:46.636Z,18.60
2019-04-05T18:21:15.703Z,15.47
2019-04-05T18:23:46.538Z,18.83
2019-04-05T18:26:18.487Z,26.00
2019-04-05T18:28:53.526Z,19.17
2019-04-05T18:31:27.048Z,21.53
2019-04-05T18:33:56.148Z,15.53
2019-04-05T18:36:25.236Z,22.97
2019-04-05T18:38:57.096Z,15.70
2019-04-05T18:41:26.582Z,20.47
2019-04-05T18:43:55.724Z,19.57
2019-04-05T18:46:27.700Z,17.47
2019-04-05T18:48:59.751Z,24.63
2019-04-05T18:51:28.864Z,24.57
2019-04-05T18:54:00.886Z,23.73
2019-04-05T18:56:31.521Z,21.50
2019-04-05T18:59:02.123Z,22.47
2019-04-05T19:01:33.343Z,24.23
2019-04-05T19:04:08.213Z,23.13
2019-04-05T19:06:37.508Z,19.80
2019-04-05T19:09:11.598Z,19.87
2019-04-05T19:11:39.563Z,22.63
2019-04-05T19:14:08.778Z,20.60
2019-04-05T19:16:38.017Z,19.10
2019-04-05T19:19:08.659Z,19.10
2019-04-05T19:21:41.736Z,23.53
2019-04-05T19:24:12.575Z,20.27
2019-04-05T19:26:43.228Z,20.67
2019-04-05T19:29:12.378Z,22.53
2019-04-05T19:49:33.703Z,22.30
2019-04-05T19:52:02.924Z,24.53
2019-04-05T19:54:32.936Z,22.20
2019-04-05T19:57:02.065Z,24.73
2019-04-05T19:59:31.134Z,22.27
2019-04-05T20:02:01.747Z,22.07
2019-04-05T20:04:35.635Z,18.47
2019-04-05T20:07:07.719Z,24.67
2019-04-05T20:09:38.394Z,24.03
2019-04-05T20:12:07.493Z,23.33
2019-04-05T20:14:38.393Z,22.70
2019-04-05T20:17:07.497Z,21.23
2019-04-05T20:19:36.619Z,20.03
2019-04-05T20:22:07.562Z,23.10
2019-04-05T20:24:36.659Z,24.50
2019-04-05T20:27:07.232Z,19.97
2019-04-05T20:29:37.987Z,24.90
2019-04-05T20:32:12.307Z,21.33
2019-04-05T20:34:41.448Z,22.53
2019-04-05T20:37:13.174Z,30.80
2019-04-05T20:39:42.284Z,24.30
2019-04-05T20:42:11.410Z,22.10
2019-04-05T20:44:41.986Z,22.67
2019-04-05T20:47:14.250Z,25.50
2019-04-05T20:49:43.341Z,25.43
2019-04-05T20:52:12.458Z,20.20
2019-04-05T20:54:41.570Z,23.37
2019-04-05T20:57:13.755Z,19.00
2019-04-05T20:59:44.595Z,21.53
2019-04-05T21:02:13.674Z,25.37
2019-04-05T21:04:42.786Z,22.13
2019-04-05T21:07:11.888Z,19.07
2019-04-05T21:09:41.117Z,25.27
2019-04-05T21:12:13.560Z,16.83
2019-04-05T21:14:44.986Z,24.43
2019-04-05T21:17:14.487Z,22.47
2019-04-05T21:19:48.430Z,27.07
2019-04-05T21:22:19.082Z,19.83
2019-04-05T21:24:49.485Z,17.77
2019-04-05T21:27:40.061Z,20.17
2019-04-05T21:30:09.400Z,16.93
2019-04-05T21:32:39.815Z,21.60
2019-04-05T21:35:08.906Z,21.90
2019-04-05T21:37:39.746Z,15.77
2019-04-05T21:40:08.968Z,20.50
2019-04-05T21:42:39.602Z,17.50
2019-04-05T21:45:10.472Z,19.53
2019-04-05T21:47:44.118Z,16.40
2019-04-05T21:50:17.031Z,20.67
2019-04-05T21:52:47.381Z,18.90
2019-04-05T21:55:24.443Z,21.30
2019-04-05T21:57:55.395Z,15.20
2019-04-05T22:00:27.569Z,15.67
2019-04-05T22:02:59.114Z,18.70
2019-04-05T22:05:29.176Z,17.47
2019-04-05T22:07:59.813Z,21.33
2019-04-05T22:10:31.211Z,17.37
2019-04-05T22:13:00.338Z,19.70
2019-04-05T22:15:29.881Z,18.33
2019-04-05T22:17:59.937Z,19.87
2019-04-05T22:20:30.799Z,16.80
2019-04-05T22:23:01.623Z,16.77
2019-04-05T22:25:30.685Z,15.53
2019-04-05T22:27:59.734Z,19.93
2019-04-05T22:30:28.821Z,18.50
2019-04-05T22:32:57.933Z,19.53
2019-04-05T22:35:32.155Z,18.57
2019-04-05T22:38:01.746Z,17.60
2019-04-05T22:40:37.152Z,18.33
2019-04-05T22:43:12.257Z,17.40
2019-04-05T22:45:43.397Z,18.00
2019-04-05T22:48:19.147Z,17.20
2019-04-05T22:50:52.723Z,16.03
2019-04-05T22:53:22.885Z,17.30
2019-04-05T22:55:53.818Z,17.40
2019-04-05T22:58:31.879Z,23.73
2019-04-05T23:01:06.010Z,22.13
2019-04-05T23:03:35.048Z,19.50
2019-04-05T23:06:04.141Z,19.80
2019-04-05T23:08:33.191Z,23.33
2019-04-05T23:11:03.801Z,16.20
2019-04-05T23:13:33.216Z,17.17
2019-04-05T23:16:06.843Z,19.00
2019-04-05T23:18:38.939Z,16.40
2019-04-05T23:21:08.007Z,17.83
2019-04-05T23:23:40.951Z,17.90
2019-04-05T23:26:17.494Z,19.23
2019-04-05T23:28:48.051Z,18.83
2019-04-05T23:31:22.743Z,17.40
2019-04-05T23:33:51.881Z,20.20
2019-04-05T23:36:25.355Z,18.10
2019-04-05T23:38:54.515Z,18.67
2019-04-05T23:41:23.597Z,17.90
2019-04-05T23:43:52.651Z,19.70
2019-04-05T23:46:21.781Z,19.43
2019-04-05T23:48:50.856Z,17.03
2019-04-05T23:51:19.896Z,18.40
2019-04-05T23:53:48.972Z,22.20
2019-04-05T23:56:18.049Z,18.37
2019-04-05T23:58:48.648Z,19.57
